Time;durP1;ratioP1;P1;durP2;ratioP2;P2;SDS_P1;SDS_P2;PMS_P1;PMS_P2;Temp;Humidity;BMP_temperature;BMP_pressure;BME280_temperature;BME280_humidity;BME280_pressure;Samples;Min_cycle;Max_cycle;Signal;HPM_P1;HPM_P2
2022/05/12 00:00:26;;;;;;;11.63;7.85;;;16.30;99.90;;;;;;5035884;28;20031;-90
2022/05/12 00:02:52;;;;;;;10.00;8.07;;;16.30;99.90;;;;;;5039278;28;20036;-88
2022/05/12 00:05:18;;;;;;;14.07;8.30;;;16.30;99.90;;;;;;5043432;28;20171;-89
2022/05/12 00:07:44;;;;;;;9.43;7.95;;;16.30;99.90;;;;;;5042092;28;20025;-89
2022/05/12 00:10:13;;;;;;;19.33;8.32;;;16.30;99.90;;;;;;5034643;28;20108;-90
2022/05/12 00:12:44;;;;;;;10.65;7.30;;;16.30;99.90;;;;;;5040682;28;20068;-87
2022/05/12 00:15:20;;;;;;;10.23;7.97;;;16.30;99.90;;;;;;5037192;28;20078;-86
2022/05/12 00:17:46;;;;;;;11.05;8.05;;;16.30;99.90;;;;;;5037072;28;20034;-89
2022/05/12 00:20:13;;;;;;;18.70;7.93;;;16.30;99.90;;;;;;5043319;28;20075;-89
2022/05/12 00:22:39;;;;;;;8.68;7.03;;;16.30;99.90;;;;;;5038386;28;20087;-88
2022/05/12 00:25:16;;;;;;;15.15;8.05;;;16.30;99.90;;;;;;5013582;28;20018;-89
2022/05/12 00:27:44;;;;;;;12.80;8.10;;;16.30;99.90;;;;;;5013490;28;20033;-89
2022/05/12 00:30:11;;;;;;;9.82;8.00;;;16.30;99.90;;;;;;5021051;28;20069;-89
2022/05/12 00:32:41;;;;;;;10.50;7.88;;;16.30;99.90;;;;;;5037841;28;20041;-89
2022/05/12 00:35:09;;;;;;;10.30;7.70;;;16.30;99.90;;;;;;5035242;28;20033;-88
2022/05/12 00:37:35;;;;;;;14.57;7.65;;;16.30;99.90;;;;;;5036839;28;20029;-88
2022/05/12 00:40:01;;;;;;;16.15;8.23;;;16.30;99.90;;;;;;5022924;28;20120;-88
2022/05/12 00:42:26;;;;;;;14.60;8.50;;;16.30;99.90;;;;;;5042016;28;20065;-88
2022/05/12 00:44:52;;;;;;;11.95;7.97;;;16.30;99.90;;;;;;5036751;28;20537;-88
2022/05/12 00:47:18;;;;;;;17.95;8.27;;;16.30;99.90;;;;;;5037075;28;20056;-88
2022/05/12 00:49:47;;;;;;;14.25;8.05;;;16.40;99.90;;;;;;5043133;28;20073;-88
2022/05/12 00:52:23;;;;;;;14.00;8.18;;;16.40;99.90;;;;;;5040449;28;20484;-88
2022/05/12 00:55:03;;;;;;;9.50;7.75;;;16.30;99.90;;;;;;5041054;28;20021;-88
2022/05/12 00:57:39;;;;;;;12.68;8.27;;;16.30;99.90;;;;;;5034630;28;20118;-88
2022/05/12 01:00:08;;;;;;;14.95;7.85;;;16.30;99.90;;;;;;5034327;28;20029;-87
2022/05/12 01:02:35;;;;;;;9.98;8.00;;;16.30;99.90;;;;;;5019195;28;20392;-88
2022/05/12 01:05:01;;;;;;;18.73;8.45;;;16.30;99.90;;;;;;5021882;28;20160;-89
2022/05/12 01:07:27;;;;;;;12.98;8.18;;;16.30;99.90;;;;;;5037950;28;20053;-89
2022/05/12 01:09:53;;;;;;;12.77;7.95;;;16.30;99.90;;;;;;5036137;28;20064;-87
2022/05/12 01:12:21;;;;;;;13.00;8.20;;;16.20;99.90;;;;;;5038353;28;20033;-85
2022/05/12 01:14:47;;;;;;;13.23;8.02;;;16.30;99.90;;;;;;5037646;28;20111;-87
2022/05/12 01:17:23;;;;;;;15.43;8.35;;;16.20;99.90;;;;;;5042859;28;20112;-85
2022/05/12 01:19:58;;;;;;;16.40;9.07;;;16.20;99.90;;;;;;5045246;28;20017;-85
2022/05/12 01:23:08;;;;;;;14.80;9.13;;;16.20;99.90;;;;;;5042693;28;20038;-85
2022/05/12 01:25:54;;;;;;;11.90;8.02;;;16.20;99.90;;;;;;5034623;28;20075;-85
2022/05/12 01:28:25;;;;;;;12.43;8.05;;;16.20;99.90;;;;;;5044144;28;20025;-86
2022/05/12 01:30:51;;;;;;;16.77;7.68;;;16.10;99.90;;;;;;5043390;28;20025;-87
2022/05/12 01:33:17;;;;;;;13.32;7.82;;;16.20;99.90;;;;;;5025580;28;20364;-86
2022/05/12 01:35:43;;;;;;;9.27;7.68;;;16.10;99.90;;;;;;5022178;28;20124;-88
2022/05/12 01:38:10;;;;;;;11.50;7.85;;;16.10;99.90;;;;;;5025415;28;20059;-89
2022/05/12 01:40:43;;;;;;;11.07;8.02;;;16.10;99.90;;;;;;5029718;28;20048;-86
2022/05/12 01:43:14;;;;;;;10.30;8.07;;;16.10;99.90;;;;;;5024488;28;20033;-88
2022/05/12 01:45:49;;;;;;;9.30;8.32;;;16.10;99.90;;;;;;5029319;28;20013;-87
2022/05/12 01:48:23;;;;;;;13.27;8.13;;;16.10;99.90;;;;;;5020803;28;20041;-86
2022/05/12 01:51:08;;;;;;;10.73;7.82;;;16.10;99.90;;;;;;5025640;28;20025;-87
2022/05/12 01:53:50;;;;;;;10.13;8.40;;;16.10;99.90;;;;;;5024615;28;20116;-87
2022/05/12 01:56:40;;;;;;;11.13;8.40;;;16.10;99.90;;;;;;5020873;28;20025;-87
2022/05/12 01:59:17;;;;;;;12.90;8.25;;;16.10;99.90;;;;;;5026120;28;20439;-88
2022/05/12 02:02:29;;;;;;;;;;;;;;;;;;;;;
2022/05/12 02:05:21;;;;;;;14.80;8.07;;;16.10;99.90;;;;;;5025477;28;20473;-88
2022/05/12 02:08:20;;;;;;;10.45;8.20;;;16.10;99.90;;;;;;5017853;28;20033;-88
2022/05/12 02:10:50;;;;;;;11.00;8.35;;;16.10;99.90;;;;;;5004750;28;20195;-88
2022/05/12 02:14:09;;;;;;;13.35;7.55;;;16.00;99.90;;;;;;5021231;28;20590;-87
2022/05/12 02:21:08;;;;;;;10.82;7.55;;;16.10;99.90;;;;;;4963552;28;20501;-86
2022/05/12 02:23:40;;;;;;;10.38;7.18;;;16.00;99.90;;;;;;4942174;28;20565;-86
2022/05/12 02:29:28;;;;;;;11.65;8.02;;;15.90;99.90;;;;;;5025596;28;20044;-86
2022/05/12 02:32:01;;;;;;;12.43;8.18;;;15.90;99.90;;;;;;4981135;28;20053;-86
2022/05/12 02:34:32;;;;;;;18.15;7.57;;;15.90;99.90;;;;;;5014319;28;20017;-87
2022/05/12 02:37:01;;;;;;;13.37;7.33;;;15.90;99.90;;;;;;5022352;28;20025;-88
2022/05/12 02:39:28;;;;;;;14.98;7.85;;;15.80;99.90;;;;;;5015267;28;20606;-88
2022/05/12 02:41:54;;;;;;;11.77;8.32;;;15.80;99.90;;;;;;5022632;28;20048;-88
2022/05/12 02:44:20;;;;;;;9.35;8.00;;;15.80;99.90;;;;;;5025831;28;20471;-87
2022/05/12 02:46:46;;;;;;;11.23;8.15;;;15.80;99.90;;;;;;5015372;28;20045;-86
2022/05/12 02:49:14;;;;;;;13.18;7.88;;;15.80;99.90;;;;;;5016759;28;20029;-87
2022/05/12 02:51:58;;;;;;;13.57;8.20;;;15.80;99.90;;;;;;5017736;28;20049;-86
2022/05/12 02:54:55;;;;;;;13.00;8.25;;;15.80;99.90;;;;;;5017045;28;20373;-86
2022/05/12 02:57:30;;;;;;;10.05;8.18;;;15.80;99.90;;;;;;5022591;28;20045;-86
2022/05/12 02:59:56;;;;;;;15.65;8.25;;;15.80;99.90;;;;;;5026181;28;20029;-86
2022/05/12 03:02:25;;;;;;;15.45;8.57;;;15.80;99.90;;;;;;5020670;28;20113;-86
2022/05/12 03:04:52;;;;;;;10.90;8.73;;;15.80;99.90;;;;;;5025601;28;20061;-87
2022/05/12 03:07:29;;;;;;;11.75;8.77;;;15.80;99.90;;;;;;5025495;28;20076;-86
2022/05/12 03:10:02;;;;;;;12.23;7.85;;;15.80;99.90;;;;;;5026704;28;20039;-86
2022/05/12 03:12:42;;;;;;;9.93;8.73;;;15.80;99.90;;;;;;5021678;28;20070;-86
2022/05/12 03:15:29;;;;;;;13.25;8.32;;;15.80;99.90;;;;;;5029628;28;20040;-87
2022/05/12 03:21:46;;;;;;;12.90;8.40;;;15.80;99.90;;;;;;4899912;29;20514;-86
2022/05/12 03:24:19;;;;;;;15.25;8.45;;;15.80;99.90;;;;;;4891627;29;20512;-86
2022/05/12 03:26:46;;;;;;;11.13;7.35;;;15.80;99.90;;;;;;4979473;28;20062;-86
2022/05/12 03:29:13;;;;;;;15.77;9.13;;;15.80;99.90;;;;;;4957463;28;20031;-86
2022/05/12 03:31:45;;;;;;;11.55;8.45;;;15.80;99.90;;;;;;4991668;28;20041;-86
2022/05/12 03:34:11;;;;;;;13.27;8.10;;;15.80;99.90;;;;;;5012973;28;20088;-86
2022/05/12 03:36:40;;;;;;;13.32;8.35;;;15.80;99.90;;;;;;5017634;28;20029;-86
2022/05/12 03:39:28;;;;;;;;;;;;;;;;;;;;;
2022/05/12 03:42:02;;;;;;;12.32;8.68;;;15.80;99.90;;;;;;5020482;28;20026;-87
2022/05/12 03:44:50;;;;;;;11.98;8.48;;;15.90;99.90;;;;;;5024159;28;20361;-87
2022/05/12 03:47:35;;;;;;;19.27;8.88;;;15.80;99.90;;;;;;5029644;28;20056;-86
2022/05/12 03:50:05;;;;;;;11.65;8.10;;;15.90;99.90;;;;;;5037561;28;20376;-85
2022/05/12 03:52:32;;;;;;;9.57;7.65;;;15.90;99.90;;;;;;5041009;28;20137;-86
2022/05/12 03:54:58;;;;;;;13.10;8.10;;;15.90;99.90;;;;;;5026282;28;20021;-86
2022/05/12 03:57:27;;;;;;;13.80;8.07;;;15.90;99.90;;;;;;5021834;28;20118;-86
2022/05/12 03:59:55;;;;;;;20.70;8.68;;;15.90;99.90;;;;;;5034619;28;20037;-87
2022/05/12 04:02:22;;;;;;;9.30;7.63;;;16.00;99.90;;;;;;5021825;28;20025;-86
2022/05/12 04:04:49;;;;;;;12.48;8.30;;;16.00;99.90;;;;;;5041635;28;20033;-86
2022/05/12 04:07:19;;;;;;;19.75;7.75;;;16.00;99.90;;;;;;5040624;28;20370;-87
2022/05/12 04:10:04;;;;;;;11.60;8.10;;;16.10;99.90;;;;;;5042373;28;20260;-87
2022/05/12 04:12:33;;;;;;;10.20;8.35;;;16.20;99.90;;;;;;5030367;28;20492;-86
2022/05/12 04:15:11;;;;;;;10.05;8.15;;;16.30;99.90;;;;;;5042018;28;20025;-87
2022/05/12 04:17:37;;;;;;;15.05;7.90;;;16.30;99.90;;;;;;5021364;28;20083;-86
2022/05/12 04:20:06;;;;;;;10.43;7.70;;;16.40;99.90;;;;;;5031126;28;20022;-89
2022/05/12 04:22:33;;;;;;;8.75;7.88;;;16.40;99.90;;;;;;5016382;28;20415;-87
2022/05/12 04:24:59;;;;;;;10.73;8.32;;;16.40;99.90;;;;;;5018288;28;20051;-89
2022/05/12 04:27:25;;;;;;;9.10;7.38;;;16.50;99.90;;;;;;5036767;28;20065;-89
2022/05/12 04:29:51;;;;;;;11.50;7.63;;;16.50;99.90;;;;;;5041077;28;20029;-88
2022/05/12 04:32:16;;;;;;;11.73;8.13;;;16.60;99.90;;;;;;5021834;28;20034;-88
2022/05/12 04:37:31;;;;;;;14.00;7.88;;;16.70;99.90;;;;;;5039994;28;20064;-86
2022/05/12 04:40:19;;;;;;;12.25;7.75;;;16.80;99.90;;;;;;5025830;28;20033;-89
2022/05/12 04:42:47;;;;;;;12.32;7.95;;;16.90;99.90;;;;;;5020370;28;20025;-89
2022/05/12 04:45:14;;;;;;;11.98;7.82;;;17.00;99.90;;;;;;5044908;28;20029;-89
2022/05/12 04:47:41;;;;;;;11.00;7.45;;;17.00;99.90;;;;;;5044532;28;20194;-89
2022/05/12 04:50:11;;;;;;;13.10;8.52;;;17.10;99.90;;;;;;5022781;28;20056;-89
2022/05/12 04:52:37;;;;;;;12.68;7.88;;;17.20;99.90;;;;;;5026018;28;20091;-89
2022/05/12 04:55:04;;;;;;;10.65;7.60;;;17.30;99.90;;;;;;5036373;28;20380;-89
2022/05/12 04:57:39;;;;;;;10.15;7.30;;;17.40;99.90;;;;;;5044429;28;20029;-89
2022/05/12 05:00:10;;;;;;;14.43;7.57;;;17.40;99.90;;;;;;5038446;28;20018;-89
2022/05/12 05:02:36;;;;;;;10.82;7.03;;;17.50;99.90;;;;;;5021339;28;20420;-89
2022/05/12 05:05:04;;;;;;;11.32;7.43;;;17.60;99.90;;;;;;5018590;28;20029;-88
2022/05/12 05:07:30;;;;;;;15.88;8.48;;;17.60;99.90;;;;;;5026683;28;20115;-87
2022/05/12 05:09:55;;;;;;;12.23;8.05;;;17.70;99.90;;;;;;5040661;28;20140;-88
2022/05/12 05:12:21;;;;;;;18.13;7.85;;;17.80;99.90;;;;;;5041872;28;20542;-90
2022/05/12 05:14:47;;;;;;;14.50;7.93;;;17.90;99.90;;;;;;5044736;28;20021;-88
2022/05/12 05:17:13;;;;;;;17.83;7.53;;;17.90;99.90;;;;;;5041405;28;20399;-86
2022/05/12 05:19:39;;;;;;;14.77;7.38;;;18.00;99.90;;;;;;5028258;28;20053;-91
2022/05/12 05:22:05;;;;;;;12.70;7.70;;;18.10;99.90;;;;;;5024799;28;20457;-90
2022/05/12 05:24:30;;;;;;;11.35;6.97;;;18.10;99.90;;;;;;5022839;28;20030;-86
2022/05/12 05:26:56;;;;;;;11.43;6.65;;;18.10;99.90;;;;;;5045018;28;20025;-86
2022/05/12 05:29:22;;;;;;;12.68;6.68;;;18.30;99.90;;;;;;5023060;28;20019;-86
2022/05/12 05:31:47;;;;;;;12.18;6.50;;;18.30;99.90;;;;;;5026870;28;20084;-86
2022/05/12 05:34:13;;;;;;;13.95;7.03;;;18.40;99.90;;;;;;5047808;28;20403;-85
2022/05/12 05:36:42;;;;;;;13.48;7.18;;;18.50;99.90;;;;;;5039235;28;20036;-86
2022/05/12 05:39:08;;;;;;;12.30;6.82;;;18.60;99.90;;;;;;5037082;28;20029;-84
2022/05/12 05:41:36;;;;;;;12.25;7.28;;;18.70;99.90;;;;;;5023778;28;20029;-84
2022/05/12 05:44:02;;;;;;;10.85;7.05;;;18.70;99.90;;;;;;5046930;28;20029;-85
2022/05/12 05:46:31;;;;;;;15.40;7.32;;;18.70;99.90;;;;;;5042675;28;20041;-85
2022/05/12 05:48:57;;;;;;;10.00;6.65;;;18.90;99.90;;;;;;5028179;28;20033;-85
2022/05/12 05:54:07;;;;;;;13.00;6.85;;;19.00;99.90;;;;;;5037822;28;20053;-84
2022/05/12 05:56:33;;;;;;;17.13;6.88;;;19.10;99.90;;;;;;5043693;28;20216;-85
2022/05/12 05:58:59;;;;;;;13.73;6.97;;;19.10;99.90;;;;;;5028205;28;20114;-85
2022/05/12 06:01:25;;;;;;;18.15;7.00;;;19.30;99.90;;;;;;5038785;28;20017;-85
2022/05/12 06:03:52;;;;;;;12.32;6.97;;;19.40;99.90;;;;;;5046390;28;20044;-84
2022/05/12 06:06:18;;;;;;;11.93;7.30;;;19.40;99.90;;;;;;5043243;28;20287;-83
2022/05/12 06:08:46;;;;;;;16.90;7.47;;;19.60;99.90;;;;;;5039052;28;20083;-84
2022/05/12 06:11:12;;;;;;;16.40;7.10;;;19.70;99.90;;;;;;5042276;28;20033;-83
2022/05/12 06:13:37;;;;;;;15.43;7.20;;;19.80;99.90;;;;;;5045756;28;20032;-84
2022/05/12 06:16:05;;;;;;;14.70;6.57;;;19.90;99.90;;;;;;5042827;28;20021;-84
2022/05/12 06:18:31;;;;;;;20.55;6.68;;;19.90;99.90;;;;;;5021001;28;20033;-83
2022/05/12 06:20:56;;;;;;;10.63;6.32;;;20.00;99.90;;;;;;5040679;28;20485;-84
2022/05/12 06:23:22;;;;;;;15.75;6.55;;;20.10;99.90;;;;;;5040922;28;20116;-84
2022/05/12 06:25:48;;;;;;;13.13;6.70;;;20.20;99.90;;;;;;5039905;28;20098;-86
2022/05/12 06:28:13;;;;;;;9.80;6.40;;;20.20;99.90;;;;;;5043071;28;20056;-83
2022/05/12 06:30:40;;;;;;;15.02;7.18;;;20.30;99.90;;;;;;5042089;28;20029;-84
2022/05/12 06:33:07;;;;;;;11.20;6.90;;;20.40;99.90;;;;;;5041217;28;20076;-84
2022/05/12 06:35:33;;;;;;;11.00;7.05;;;20.50;99.90;;;;;;5042910;28;20111;-84
2022/05/12 06:37:59;;;;;;;14.57;7.00;;;20.60;99.90;;;;;;5023453;28;20033;-83
2022/05/12 06:40:25;;;;;;;17.67;8.25;;;20.70;99.90;;;;;;5041259;28;20060;-84
2022/05/12 06:42:51;;;;;;;15.57;7.03;;;20.70;99.90;;;;;;5041182;28;20082;-85
2022/05/12 06:45:19;;;;;;;9.50;6.80;;;20.90;99.90;;;;;;5038489;28;20033;-86
2022/05/12 06:47:51;;;;;;;12.23;7.53;;;20.80;99.90;;;;;;5043063;28;20412;-84
2022/05/12 06:50:21;;;;;;;12.93;6.90;;;20.80;99.90;;;;;;5041400;28;20021;-84
2022/05/12 06:52:48;;;;;;;12.80;6.53;;;20.90;99.90;;;;;;5043133;28;20041;-83
2022/05/12 06:55:14;;;;;;;15.00;6.22;;;21.00;99.90;;;;;;5044224;28;20049;-84
2022/05/12 06:57:41;;;;;;;12.40;7.30;;;21.10;99.90;;;;;;5048384;28;20060;-84
2022/05/12 07:00:09;;;;;;;10.55;7.20;;;21.10;99.90;;;;;;5041907;28;20014;-84
2022/05/12 07:02:35;;;;;;;14.57;7.18;;;21.10;99.90;;;;;;5034028;28;20195;-84
2022/05/12 07:05:01;;;;;;;10.95;7.60;;;21.10;99.90;;;;;;5029495;28;20021;-85
2022/05/12 07:07:28;;;;;;;11.73;6.55;;;21.20;99.90;;;;;;5038006;28;20128;-82
2022/05/12 07:09:55;;;;;;;15.05;7.20;;;21.30;99.90;;;;;;5042163;28;20032;-88
2022/05/12 07:12:23;;;;;;;17.92;7.43;;;21.40;99.90;;;;;;5020277;28;20046;-83
2022/05/12 07:14:49;;;;;;;11.13;6.80;;;21.50;99.90;;;;;;5038478;28;20028;-83
2022/05/12 07:17:22;;;;;;;25.52;8.75;;;21.60;99.90;;;;;;5036741;28;20049;-83
2022/05/12 07:19:48;;;;;;;;;;;21.60;99.90;;;;;;5023499;28;20070;-82
2022/05/12 07:27:42;;;;;;;20.88;9.48;;;21.60;99.90;;;;;;5036961;28;20044;-84
2022/05/12 07:30:09;;;;;;;20.10;8.70;;;21.50;99.90;;;;;;5044119;28;20022;-82
2022/05/12 07:32:37;;;;;;;13.15;9.25;;;21.50;99.90;;;;;;5039408;28;20037;-81
2022/05/12 07:35:06;;;;;;;12.38;9.02;;;21.40;99.90;;;;;;5034879;28;20049;-81
2022/05/12 07:37:33;;;;;;;17.73;9.65;;;21.10;99.90;;;;;;5035618;28;20013;-82
2022/05/12 07:39:59;;;;;;;18.90;9.07;;;20.90;99.90;;;;;;5044730;28;20538;-82
2022/05/12 07:42:29;;;;;;;13.77;9.23;;;20.80;99.90;;;;;;5045280;28;20029;-82
2022/05/12 07:44:55;;;;;;;17.83;9.43;;;20.70;99.90;;;;;;5044473;28;20422;-81
2022/05/12 07:47:21;;;;;;;18.55;9.68;;;20.80;99.90;;;;;;5040048;28;20060;-82
2022/05/12 07:49:46;;;;;;;12.27;7.82;;;20.70;99.90;;;;;;5043185;28;20396;-82
2022/05/12 07:52:15;;;;;;;19.77;7.82;;;20.80;99.90;;;;;;5041895;28;20037;-82
2022/05/12 07:54:41;;;;;;;15.68;8.23;;;20.80;99.90;;;;;;5044669;28;20017;-82
2022/05/12 07:57:07;;;;;;;20.10;9.15;;;20.90;99.90;;;;;;5041084;28;20025;-80
2022/05/12 07:59:34;;;;;;;10.82;6.80;;;21.00;99.90;;;;;;5046521;28;20128;-82
2022/05/12 08:02:03;;;;;;;13.10;7.22;;;21.00;99.90;;;;;;5041762;28;20048;-81
2022/05/12 08:04:29;;;;;;;18.02;7.03;;;21.10;99.90;;;;;;5044095;28;20077;-81
2022/05/12 08:06:58;;;;;;;13.93;6.65;;;21.20;99.90;;;;;;5036779;28;20022;-82
2022/05/12 08:09:24;;;;;;;14.88;7.38;;;21.30;99.90;;;;;;5043119;28;20119;-82
2022/05/12 08:11:49;;;;;;;16.15;7.82;;;21.30;99.90;;;;;;5039994;28;20037;-81
2022/05/12 08:14:15;;;;;;;15.30;6.95;;;21.40;99.90;;;;;;5045613;28;20083;-82
2022/05/12 08:16:41;;;;;;;14.88;6.70;;;21.30;99.90;;;;;;5038974;28;20025;-82
2022/05/12 08:19:07;;;;;;;14.38;7.15;;;21.40;99.90;;;;;;5035768;28;20029;-82
2022/05/12 08:21:33;;;;;;;14.70;8.07;;;21.40;99.90;;;;;;5023055;28;20072;-82
2022/05/12 08:23:59;;;;;;;18.50;7.63;;;21.50;99.90;;;;;;5043829;28;20053;-82
2022/05/12 08:26:24;;;;;;;16.58;7.10;;;21.60;99.90;;;;;;5022884;28;20029;-82
2022/05/12 08:28:51;;;;;;;12.77;7.30;;;21.50;99.90;;;;;;5042420;28;20032;-82
2022/05/12 08:31:20;;;;;;;12.70;7.40;;;21.60;99.90;;;;;;5023111;28;20383;-82
2022/05/12 08:33:46;;;;;;;14.02;7.75;;;21.80;99.90;;;;;;5036269;28;20057;-83
2022/05/12 08:36:12;;;;;;;16.98;8.20;;;21.80;99.90;;;;;;5041523;28;21552;-82
2022/05/12 08:38:40;;;;;;;13.30;8.00;;;21.80;99.90;;;;;;5042435;28;20506;-83
2022/05/12 08:41:17;;;;;;;17.83;8.07;;;21.90;99.90;;;;;;5041414;28;20029;-84
2022/05/12 08:44:08;;;;;;;14.25;8.18;;;22.00;99.90;;;;;;5037164;28;20030;-83
2022/05/12 08:46:38;;;;;;;20.05;8.10;;;22.00;99.90;;;;;;5040641;28;20714;-83
2022/05/12 08:49:28;;;;;;;12.82;7.35;;;22.20;99.90;;;;;;5044320;28;20078;-83
2022/05/12 08:52:15;;;;;;;16.15;8.27;;;22.30;99.90;;;;;;5013228;28;20030;-81
2022/05/12 08:54:50;;;;;;;21.23;8.98;;;22.40;99.90;;;;;;5012312;28;20373;-82
2022/05/12 08:57:32;;;;;;;16.08;8.25;;;22.50;99.90;;;;;;5032783;28;20071;-82
2022/05/12 09:00:01;;;;;;;22.17;8.30;;;22.50;99.90;;;;;;5022521;28;20029;-82
2022/05/12 09:02:45;;;;;;;17.00;8.55;;;22.40;99.90;;;;;;5034167;28;20137;-82
2022/05/12 09:05:16;;;;;;;15.35;8.63;;;22.40;99.90;;;;;;5032803;28;20021;-82
2022/05/12 09:08:03;;;;;;;14.20;8.27;;;22.40;99.90;;;;;;5035654;28;20028;-81
2022/05/12 09:10:29;;;;;;;16.15;8.98;;;22.40;99.90;;;;;;5016060;28;20063;-82
2022/05/12 09:13:02;;;;;;;18.10;11.45;;;22.20;99.90;;;;;;5036258;28;20084;-82
2022/05/12 09:15:31;;;;;;;17.50;9.77;;;22.10;99.90;;;;;;5033170;28;20025;-86
2022/05/12 09:17:58;;;;;;;19.88;9.05;;;22.10;99.90;;;;;;5042946;28;20074;-83
2022/05/12 09:20:26;;;;;;;14.23;9.30;;;22.10;99.90;;;;;;5028399;28;20430;-84
2022/05/12 09:22:52;;;;;;;15.85;8.75;;;22.20;99.90;;;;;;5019068;28;20029;-81
2022/05/12 09:25:37;;;;;;;18.15;8.00;;;22.30;99.90;;;;;;5031061;28;20502;-81
2022/05/12 09:28:24;;;;;;;10.52;7.32;;;22.50;99.90;;;;;;5034018;28;20064;-82
2022/05/12 09:30:50;;;;;;;19.75;7.95;;;22.60;99.90;;;;;;5009018;28;20025;-82
2022/05/12 09:33:35;;;;;;;16.10;8.40;;;22.60;99.90;;;;;;5040135;28;20442;-82
2022/05/12 09:36:05;;;;;;;12.18;6.80;;;22.70;99.90;;;;;;5039641;28;20253;-82
2022/05/12 09:38:38;;;;;;;13.65;7.18;;;22.70;99.90;;;;;;5038689;28;20057;-82
2022/05/12 09:41:16;;;;;;;10.13;7.38;;;22.80;99.90;;;;;;5038714;28;20475;-83
2022/05/12 09:43:42;;;;;;;16.70;7.75;;;22.80;99.90;;;;;;5040354;28;20022;-82
2022/05/12 09:46:29;;;;;;;16.85;7.72;;;22.80;99.90;;;;;;5037006;28;20510;-82
2022/05/12 09:49:19;;;;;;;13.23;7.35;;;22.80;99.90;;;;;;5036047;28;20113;-83
2022/05/12 09:51:46;;;;;;;14.20;6.78;;;22.80;99.90;;;;;;5024852;28;20130;-82
2022/05/12 09:54:26;;;;;;;18.92;7.72;;;22.90;99.90;;;;;;5035451;28;20025;-82
2022/05/12 09:57:17;;;;;;;13.73;7.38;;;22.80;99.90;;;;;;5035741;28;20477;-83
2022/05/12 09:59:52;;;;;;;14.02;7.55;;;22.90;99.90;;;;;;5037914;28;20064;-83
2022/05/12 10:08:27;;;;;;;17.25;8.70;;;22.40;99.90;;;;;;5032479;28;20084;-83
2022/05/12 10:11:00;;;;;;;14.80;8.70;;;22.30;99.90;;;;;;5037592;28;20256;-82
2022/05/12 10:13:48;;;;;;;16.42;9.52;;;22.10;99.90;;;;;;5037859;28;20069;-82
2022/05/12 10:16:18;;;;;;;18.00;9.85;;;22.10;99.90;;;;;;5019851;28;20033;-83
2022/05/12 10:18:48;;;;;;;14.30;8.82;;;22.20;99.90;;;;;;5042846;28;20112;-83
2022/05/12 10:21:14;;;;;;;19.33;10.70;;;22.20;99.90;;;;;;5038033;28;20083;-82
2022/05/12 10:24:00;;;;;;;16.52;10.25;;;22.20;99.90;;;;;;5036681;28;20026;-85
2022/05/12 10:27:01;;;;;;;19.33;9.35;;;22.30;99.90;;;;;;5040951;28;20071;-85
2022/05/12 10:30:05;;;;;;;18.23;10.73;;;22.20;99.90;;;;;;4974661;28;20111;-82
2022/05/12 10:32:56;;;;;;;17.48;10.13;;;22.10;99.90;;;;;;5024565;28;20573;-84
2022/05/12 10:35:35;;;;;;;21.17;10.38;;;22.10;99.90;;;;;;5021230;28;20021;-85
2022/05/12 10:38:09;;;;;;;16.25;10.63;;;22.10;99.90;;;;;;5025319;28;20074;-83
2022/05/12 10:40:56;;;;;;;18.30;10.35;;;22.10;99.90;;;;;;5036852;28;20018;-84
2022/05/12 10:43:34;;;;;;;16.73;10.25;;;22.10;99.90;;;;;;5040324;28;20021;-83
2022/05/12 10:46:23;;;;;;;17.25;11.40;;;21.90;99.90;;;;;;5040310;28;20589;-82
2022/05/12 10:49:05;;;;;;;29.15;10.32;;;22.10;99.90;;;;;;5039939;28;20387;-82
2022/05/12 10:51:59;;;;;;;14.38;10.80;;;22.10;99.90;;;;;;5042718;28;20498;-82
2022/05/12 10:54:44;;;;;;;14.15;10.38;;;22.30;99.90;;;;;;5043315;28;20487;-82
2022/05/12 10:57:46;;;;;;;17.17;10.90;;;22.30;99.90;;;;;;5039068;28;20029;-82
2022/05/12 11:00:42;;;;;;;21.42;10.43;;;22.40;99.90;;;;;;5036491;28;20480;-82
2022/05/12 11:03:21;;;;;;;16.60;9.55;;;22.40;99.90;;;;;;5017711;28;20432;-82
2022/05/12 11:05:54;;;;;;;19.27;10.38;;;22.50;99.90;;;;;;5031876;28;20017;-82
2022/05/12 11:08:22;;;;;;;;;;;22.60;99.90;;;;;;5041050;28;20473;-84
2022/05/12 11:11:02;;;;;;;19.80;9.02;;;22.80;99.90;;;;;;5039218;28;19912;-85
2022/05/12 11:14:05;;;;;;;20.33;8.85;;;23.10;99.90;;;;;;5022493;28;20135;-86
2022/05/12 11:16:43;;;;;;;15.73;8.95;;;23.10;99.90;;;;;;5042020;28;20029;-85
2022/05/12 11:19:21;;;;;;;17.70;9.27;;;23.20;99.90;;;;;;5043122;28;20183;-90
2022/05/12 11:22:08;;;;;;;12.93;8.48;;;23.20;99.90;;;;;;5037761;28;20087;-84
2022/05/12 11:24:53;;;;;;;13.98;9.52;;;23.20;99.90;;;;;;5042230;28;20030;-86
2022/05/12 11:27:19;;;;;;;15.07;9.20;;;23.30;99.90;;;;;;5018285;28;20037;-84
2022/05/12 11:30:07;;;;;;;17.40;8.80;;;23.50;99.90;;;;;;5034516;28;20024;-83
2022/05/12 11:33:05;;;;;;;22.30;10.02;;;23.70;99.90;;;;;;5032966;28;20052;-83
2022/05/12 11:35:38;;;;;;;16.10;9.23;;;23.80;99.90;;;;;;4999638;28;20565;-83
2022/05/12 11:38:07;;;;;;;12.23;8.45;;;23.90;99.90;;;;;;5038324;28;20146;-82
2022/05/12 11:40:44;;;;;;;20.42;9.13;;;24.10;99.90;;;;;;5044072;28;20112;-84
2022/05/12 11:46:30;;;;;;;16.75;9.23;;;24.10;99.90;;;;;;5030629;28;20048;-84
2022/05/12 11:49:02;;;;;;;12.15;8.70;;;24.10;99.90;;;;;;5035279;28;20041;-82
2022/05/12 11:51:51;;;;;;;16.13;9.90;;;24.20;99.90;;;;;;5039684;28;20460;-84
2022/05/12 11:54:19;;;;;;;19.02;9.50;;;24.10;99.90;;;;;;5037020;28;20107;-82
2022/05/12 11:56:56;;;;;;;17.27;9.18;;;23.90;99.90;;;;;;5041050;28;20036;-83
2022/05/12 11:59:46;;;;;;;16.42;8.68;;;24.00;99.90;;;;;;5036414;28;20033;-82
2022/05/12 12:02:31;;;;;;;13.95;8.60;;;26.00;99.90;;;;;;5040582;28;20083;-82
2022/05/12 12:04:59;;;;;;;11.95;8.10;;;29.40;99.90;;;;;;5036313;28;20081;-83
2022/05/12 12:07:30;;;;;;;11.27;7.53;;;31.40;99.90;;;;;;5039408;28;20497;-84
2022/05/12 12:10:16;;;;;;;13.95;7.93;;;33.20;99.90;;;;;;5034653;28;20037;-85
2022/05/12 12:12:43;;;;;;;15.93;8.25;;;33.00;99.90;;;;;;5035925;28;20397;-85
2022/05/12 12:15:24;;;;;;;22.23;8.60;;;33.10;99.90;;;;;;5044907;28;20021;-84
2022/05/12 12:17:51;;;;;;;15.02;8.20;;;32.60;99.90;;;;;;5040400;28;20040;-84
2022/05/12 12:20:31;;;;;;;18.15;8.35;;;31.80;99.90;;;;;;5032403;28;20756;-84
2022/05/12 12:23:36;;;;;;;15.23;8.68;;;31.70;99.90;;;;;;5039612;28;20033;-85
2022/05/12 12:26:23;;;;;;;16.63;8.88;;;31.90;99.90;;;;;;5033384;28;20116;-87
2022/05/12 12:29:08;;;;;;;20.95;9.25;;;32.00;99.90;;;;;;5043294;28;20025;-84
2022/05/12 12:31:42;;;;;;;12.38;7.68;;;31.20;99.90;;;;;;5038464;28;20518;-85
2022/05/12 12:34:07;;;;;;;21.88;8.38;;;32.60;99.90;;;;;;5022181;28;20093;-86
2022/05/12 12:36:36;;;;;;;14.32;7.20;;;34.50;99.90;;;;;;5039802;28;20103;-84
2022/05/12 12:39:08;;;;;;;19.50;8.25;;;35.30;99.90;;;;;;5042359;28;20464;-84
2022/05/12 12:41:38;;;;;;;10.40;7.53;;;35.70;99.90;;;;;;5039603;28;20064;-85
2022/05/12 12:44:14;;;;;;;21.98;8.45;;;34.80;99.90;;;;;;5036274;28;20052;-86
2022/05/12 12:47:04;;;;;;;22.50;7.50;;;34.50;99.90;;;;;;5036743;28;20049;-85
2022/05/12 12:49:56;;;;;;;12.50;8.15;;;34.20;99.90;;;;;;5026050;28;20029;-86
2022/05/12 12:52:22;;;;;;;12.77;7.32;;;34.00;99.90;;;;;;5038262;28;20041;-85
2022/05/12 12:57:50;;;;;;;11.80;7.05;;;36.30;97.00;;;;;;5036257;28;20526;-87
2022/05/12 13:00:33;;;;;;;22.42;7.55;;;35.30;97.30;;;;;;5037273;28;20036;-86
2022/05/12 13:03:20;;;;;;;24.77;8.35;;;35.00;97.80;;;;;;5039504;28;20066;-84
2022/05/12 13:05:47;;;;;;;8.48;6.28;;;35.70;96.70;;;;;;5045668;28;20395;-85
2022/05/12 13:08:24;;;;;;;15.48;7.25;;;35.20;97.00;;;;;;5025780;28;20053;-85
2022/05/12 13:10:55;;;;;;;20.58;7.05;;;36.00;96.80;;;;;;5046785;28;20029;-86
2022/05/12 13:13:20;;;;;;;10.75;7.10;;;36.90;95.50;;;;;;5044534;28;20555;-86
2022/05/12 13:15:46;;;;;;;11.63;7.38;;;35.70;95.50;;;;;;5023117;28;20080;-85
2022/05/12 13:18:33;;;;;;;15.00;7.40;;;35.20;96.30;;;;;;5026070;28;20075;-86
2022/05/12 13:21:04;;;;;;;10.63;7.32;;;34.70;96.50;;;;;;5039877;28;20025;-86
2022/05/12 13:23:35;;;;;;;14.77;8.00;;;34.90;96.70;;;;;;5025849;28;20362;-87
2022/05/12 13:26:05;;;;;;;18.40;7.93;;;35.80;96.50;;;;;;5026079;28;20030;-83
2022/05/12 13:28:32;;;;;;;18.10;7.85;;;35.90;96.10;;;;;;5020901;28;20044;-84
2022/05/12 13:31:16;;;;;;;14.93;7.40;;;34.60;96.90;;;;;;5041650;28;20373;-85
2022/05/12 13:34:05;;;;;;;14.50;8.40;;;34.80;97.30;;;;;;5040172;28;20481;-86
2022/05/12 13:36:39;;;;;;;16.60;8.70;;;33.40;98.00;;;;;;5026393;28;20021;-86
2022/05/12 13:39:05;;;;;;;16.83;9.13;;;33.00;98.50;;;;;;5048038;28;20025;-85
2022/05/12 13:41:38;;;;;;;18.65;8.95;;;33.20;98.20;;;;;;5042453;28;20026;-87
2022/05/12 13:44:18;;;;;;;18.02;9.10;;;33.00;98.30;;;;;;5039630;28;20045;-86